Time;durP1;ratioP1;P1;durP2;ratioP2;P2;SDS_P1;SDS_P2;PMS_P1;PMS_P2;Temp;Humidity;BMP_temperature;BMP_pressure;BME280_temperature;BME280_humidity;BME280_pressure;Samples;Min_cycle;Max_cycle;Signal;HPM_P1;HPM_P2
2023/10/22 00:02:24;;;;;;;6.78;1.02;;;15.50;54.50;;;;;;4997053;28;20056;-45
2023/10/22 00:04:51;;;;;;;5.40;1.13;;;15.60;54.60;;;;;;5000834;28;20046;-47
2023/10/22 00:07:18;;;;;;;7.22;1.10;;;15.50;54.60;;;;;;5000644;28;20054;-45
2023/10/22 00:09:46;;;;;;;5.43;1.10;;;15.50;54.50;;;;;;4999675;28;20053;-48
2023/10/22 00:12:13;;;;;;;6.25;1.10;;;15.50;54.40;;;;;;5000814;28;20533;-48
2023/10/22 00:14:40;;;;;;;5.78;0.85;;;15.50;54.40;;;;;;5000242;28;20046;-47
2023/10/22 00:17:07;;;;;;;3.70;1.17;;;15.60;54.60;;;;;;4997978;28;20050;-47
2023/10/22 00:19:36;;;;;;;3.97;0.77;;;15.50;54.70;;;;;;5001056;28;20057;-51
2023/10/22 00:22:04;;;;;;;4.53;0.80;;;15.60;54.70;;;;;;5000704;28;20483;-49
2023/10/22 00:24:32;;;;;;;6.22;1.00;;;15.60;54.70;;;;;;4999308;28;20050;-50
2023/10/22 00:27:00;;;;;;;4.53;1.33;;;15.60;54.60;;;;;;4997262;28;20041;-49
2023/10/22 00:29:27;;;;;;;4.90;1.08;;;15.60;54.50;;;;;;4999785;28;20057;-49
2023/10/22 00:31:54;;;;;;;5.10;1.60;;;15.60;54.70;;;;;;4999435;28;20080;-46
2023/10/22 00:34:22;;;;;;;4.97;0.90;;;15.60;54.70;;;;;;4997754;28;20061;-52
2023/10/22 00:36:50;;;;;;;4.55;0.90;;;15.60;54.70;;;;;;5001295;28;20509;-51
2023/10/22 00:39:17;;;;;;;4.40;0.93;;;15.60;54.70;;;;;;4998258;28;20054;-43
2023/10/22 00:41:45;;;;;;;5.80;1.08;;;15.60;54.90;;;;;;4997429;28;20058;-45
2023/10/22 00:44:12;;;;;;;2.72;0.95;;;15.60;54.80;;;;;;4999534;28;20056;-45
2023/10/22 00:46:40;;;;;;;5.53;1.08;;;15.60;54.60;;;;;;4999350;28;20060;-42
2023/10/22 00:49:08;;;;;;;8.15;1.20;;;15.60;54.70;;;;;;5000704;28;20421;-43
2023/10/22 00:51:35;;;;;;;4.13;1.02;;;15.60;54.80;;;;;;4996426;28;21142;-41
2023/10/22 00:54:05;;;;;;;3.78;1.42;;;15.60;55.00;;;;;;4999321;28;20065;-40
2023/10/22 00:56:33;;;;;;;7.20;1.00;;;15.60;55.00;;;;;;4999235;28;20422;-42
2023/10/22 00:59:00;;;;;;;6.25;1.17;;;15.60;55.00;;;;;;4998709;28;20053;-47
2023/10/22 01:01:27;;;;;;;4.35;1.42;;;15.60;55.00;;;;;;4998267;28;20062;-41
2023/10/22 01:03:54;;;;;;;7.80;1.30;;;15.60;55.10;;;;;;4999130;28;20057;-41
2023/10/22 01:06:22;;;;;;;2.65;0.90;;;15.60;55.20;;;;;;4999196;28;20053;-41
2023/10/22 01:08:50;;;;;;;5.05;1.15;;;15.50;55.20;;;;;;5000230;28;20054;-43
2023/10/22 01:11:19;;;;;;;5.15;1.10;;;15.60;55.20;;;;;;4998682;28;20066;-41
2023/10/22 01:13:46;;;;;;;4.03;0.98;;;15.60;55.10;;;;;;4999678;28;20054;-41
2023/10/22 01:16:13;;;;;;;2.72;0.90;;;15.60;55.10;;;;;;4999620;28;20046;-41
2023/10/22 01:18:40;;;;;;;6.95;1.17;;;15.60;55.10;;;;;;4999634;28;20053;-46
2023/10/22 01:21:08;;;;;;;4.07;0.73;;;15.50;55.20;;;;;;5000326;28;20430;-43
2023/10/22 01:23:37;;;;;;;9.85;1.55;;;15.50;55.30;;;;;;4997836;28;20050;-46
2023/10/22 01:26:06;;;;;;;5.15;1.10;;;15.50;55.40;;;;;;5000113;28;20061;-42
2023/10/22 01:28:34;;;;;;;5.82;1.00;;;15.50;55.20;;;;;;5001183;28;20061;-40
2023/10/22 01:31:01;;;;;;;5.85;0.98;;;15.50;55.20;;;;;;4998022;28;20415;-44
2023/10/22 01:33:28;;;;;;;3.60;0.90;;;15.50;55.30;;;;;;4995811;28;20061;-42
2023/10/22 01:35:56;;;;;;;4.65;0.82;;;15.50;55.30;;;;;;5000458;28;20081;-42
2023/10/22 01:38:23;;;;;;;4.88;0.73;;;15.50;55.40;;;;;;5006140;28;20479;-41
2023/10/22 01:40:51;;;;;;;2.95;0.80;;;15.50;55.50;;;;;;4999093;28;20065;-40
2023/10/22 01:43:19;;;;;;;5.63;1.10;;;15.50;55.50;;;;;;4999077;28;20050;-46
2023/10/22 01:45:46;;;;;;;5.78;0.93;;;15.50;55.60;;;;;;4998624;28;20426;-43
2023/10/22 01:48:13;;;;;;;6.18;0.73;;;15.50;55.60;;;;;;4998611;28;20065;-43
2023/10/22 01:50:41;;;;;;;4.15;0.70;;;15.50;55.60;;;;;;5001587;28;20059;-42
2023/10/22 01:53:10;;;;;;;3.83;0.90;;;15.50;55.60;;;;;;4999153;28;20069;-43
2023/10/22 01:55:37;;;;;;;6.00;1.15;;;15.60;55.70;;;;;;4999162;28;20533;-43
2023/10/22 01:58:06;;;;;;;3.33;0.90;;;15.60;55.80;;;;;;5000396;28;20053;-42
2023/10/22 02:00:33;;;;;;;4.40;0.80;;;15.50;55.80;;;;;;4995550;28;20061;-41
2023/10/22 02:03:01;;;;;;;3.65;1.00;;;15.60;55.80;;;;;;4995975;28;20053;-41
2023/10/22 02:05:33;;;;;;;5.22;0.65;;;15.60;55.80;;;;;;4997889;28;20050;-46
2023/10/22 02:08:00;;;;;;;8.57;1.15;;;15.60;55.80;;;;;;4999072;28;20049;-44
2023/10/22 02:10:27;;;;;;;13.02;2.00;;;15.60;55.80;;;;;;5000490;28;20056;-42
2023/10/22 02:12:55;;;;;;;7.35;1.15;;;15.60;55.90;;;;;;4997843;28;20061;-46
2023/10/22 02:15:25;;;;;;;6.32;1.13;;;15.60;55.80;;;;;;5000241;28;20057;-41
2023/10/22 02:17:52;;;;;;;7.65;0.90;;;15.50;55.70;;;;;;5002534;28;20058;-40
2023/10/22 02:20:20;;;;;;;4.35;0.90;;;15.60;55.80;;;;;;5000332;28;20498;-46
2023/10/22 02:22:47;;;;;;;8.43;1.75;;;15.60;55.80;;;;;;5002335;28;20058;-43
2023/10/22 02:25:15;;;;;;;6.85;1.20;;;15.50;55.80;;;;;;5001919;28;20046;-43
2023/10/22 02:27:42;;;;;;;13.73;1.50;;;15.60;55.80;;;;;;5003143;28;20069;-41
2023/10/22 02:30:10;;;;;;;5.82;1.10;;;15.50;55.80;;;;;;5000589;28;20494;-42
2023/10/22 02:32:39;;;;;;;5.07;1.02;;;15.50;56.00;;;;;;4998928;28;20042;-41
2023/10/22 02:35:08;;;;;;;7.57;1.15;;;15.50;55.90;;;;;;5002957;28;20045;-44
2023/10/22 02:37:35;;;;;;;6.35;1.25;;;15.50;56.00;;;;;;5003942;28;21192;-41
2023/10/22 02:40:02;;;;;;;7.03;1.30;;;15.50;56.00;;;;;;5002360;28;20046;-42
2023/10/22 02:42:30;;;;;;;4.85;1.00;;;15.50;56.00;;;;;;5002085;28;20058;-42
2023/10/22 02:44:57;;;;;;;5.75;0.95;;;15.50;56.10;;;;;;5001611;28;20061;-46
2023/10/22 02:47:25;;;;;;;2.47;0.80;;;15.50;56.20;;;;;;4999470;28;20054;-44
2023/10/22 02:49:54;;;;;;;3.75;0.90;;;15.50;56.20;;;;;;5000057;28;20494;-44
2023/10/22 02:52:21;;;;;;;2.72;0.73;;;15.60;56.20;;;;;;5002104;28;20058;-43
2023/10/22 02:54:48;;;;;;;4.47;0.70;;;15.50;56.10;;;;;;5000973;28;21290;-41
2023/10/22 02:57:16;;;;;;;5.38;0.80;;;15.60;56.20;;;;;;5003919;28;20061;-46
2023/10/22 02:59:43;;;;;;;2.38;0.73;;;15.60;56.20;;;;;;5000058;28;20045;-45
2023/10/22 03:02:10;;;;;;;4.95;0.98;;;15.60;56.20;;;;;;4999095;28;20054;-46
2023/10/22 03:04:38;;;;;;;5.05;1.00;;;15.60;56.20;;;;;;5002999;28;20054;-47
2023/10/22 03:07:06;;;;;;;9.20;1.02;;;15.60;56.80;;;;;;4999248;28;20057;-43
2023/10/22 03:09:34;;;;;;;6.93;1.00;;;15.60;56.30;;;;;;5001938;28;20053;-43
2023/10/22 03:12:01;;;;;;;8.57;1.02;;;15.60;56.30;;;;;;5001756;28;21544;-43
2023/10/22 03:14:28;;;;;;;6.38;0.98;;;15.60;56.30;;;;;;5001911;28;20056;-41
2023/10/22 03:16:56;;;;;;;3.65;0.80;;;15.60;56.30;;;;;;5001460;28;20068;-43
2023/10/22 03:19:24;;;;;;;1.60;0.60;;;15.60;56.30;;;;;;5002338;28;20054;-43
2023/10/22 03:21:51;;;;;;;5.20;0.98;;;15.60;56.40;;;;;;5000180;28;20057;-45
2023/10/22 03:24:22;;;;;;;3.13;0.70;;;15.70;56.50;;;;;;5002426;28;20053;-43
2023/10/22 03:26:50;;;;;;;6.38;1.05;;;15.60;56.40;;;;;;5018900;28;20068;-40
2023/10/22 03:29:17;;;;;;;3.22;0.65;;;15.60;56.40;;;;;;5019670;28;20057;-45
2023/10/22 03:31:44;;;;;;;7.63;1.02;;;15.60;56.50;;;;;;5019587;28;20049;-41
2023/10/22 03:34:12;;;;;;;11.15;1.67;;;15.60;56.60;;;;;;5018409;28;20062;-40
2023/10/22 03:36:39;;;;;;;5.70;0.93;;;15.60;56.60;;;;;;5021416;28;20497;-42
2023/10/22 03:39:07;;;;;;;4.32;1.30;;;15.60;56.60;;;;;;5019101;28;20052;-42
2023/10/22 03:41:36;;;;;;;3.38;0.70;;;15.60;56.70;;;;;;5017880;28;20124;-42
2023/10/22 03:44:04;;;;;;;6.30;1.33;;;15.60;56.80;;;;;;5020413;28;20049;-40
2023/10/22 03:46:31;;;;;;;4.28;1.10;;;15.60;56.90;;;;;;5018900;28;20054;-42
2023/10/22 03:48:59;;;;;;;5.13;1.10;;;15.60;57.00;;;;;;5018284;28;20605;-44
2023/10/22 03:51:26;;;;;;;1.90;0.70;;;15.60;57.00;;;;;;5018882;28;20061;-41
2023/10/22 03:53:53;;;;;;;4.05;1.00;;;15.60;56.90;;;;;;5018325;28;20421;-40
2023/10/22 03:56:21;;;;;;;3.70;0.70;;;15.60;56.90;;;;;;5018134;28;20045;-43
2023/10/22 03:58:49;;;;;;;4.78;0.77;;;15.60;57.00;;;;;;5020367;28;20056;-41
2023/10/22 04:01:17;;;;;;;4.72;0.90;;;15.60;57.10;;;;;;5017482;28;20057;-43
2023/10/22 04:03:44;;;;;;;3.03;0.68;;;15.60;57.10;;;;;;5018593;28;20053;-41
2023/10/22 04:06:11;;;;;;;2.22;0.68;;;15.60;57.10;;;;;;5021451;28;20056;-41
2023/10/22 04:08:38;;;;;;;3.65;0.80;;;15.60;57.10;;;;;;5020381;28;20049;-43
2023/10/22 04:11:06;;;;;;;2.65;0.90;;;15.60;57.20;;;;;;5020294;28;20052;-43
2023/10/22 04:13:33;;;;;;;1.77;0.65;;;15.60;57.10;;;;;;5018797;28;20049;-42
2023/10/22 04:16:02;;;;;;;4.45;0.63;;;15.70;57.20;;;;;;5017522;28;20053;-42
2023/10/22 04:18:29;;;;;;;2.15;0.60;;;15.60;57.20;;;;;;5017912;28;20642;-40
2023/10/22 04:20:56;;;;;;;3.72;0.75;;;15.60;57.20;;;;;;5019191;28;20565;-40
2023/10/22 04:23:24;;;;;;;4.07;0.60;;;15.60;57.30;;;;;;5017844;28;20060;-41
2023/10/22 04:25:51;;;;;;;3.88;0.50;;;15.60;57.30;;;;;;5018803;28;20409;-41
2023/10/22 04:28:18;;;;;;;3.60;0.80;;;15.60;57.30;;;;;;5019526;28;20049;-42
2023/10/22 04:30:46;;;;;;;4.20;0.60;;;15.60;57.40;;;;;;5017954;28;20145;-43
2023/10/22 04:33:15;;;;;;;4.15;0.98;;;15.60;57.50;;;;;;5017882;28;20050;-40
2023/10/22 04:35:42;;;;;;;2.55;0.50;;;15.60;57.60;;;;;;5019955;28;20489;-41
2023/10/22 04:38:09;;;;;;;4.88;0.90;;;15.60;57.50;;;;;;5018822;28;20528;-42
2023/10/22 04:40:37;;;;;;;5.72;2.63;;;15.50;57.50;;;;;;5019065;28;20525;-42
2023/10/22 04:43:04;;;;;;;4.63;1.23;;;15.50;57.40;;;;;;5017519;28;20053;-46
2023/10/22 04:45:31;;;;;;;5.68;0.80;;;15.50;57.50;;;;;;5018057;28;20056;-42
2023/10/22 04:47:58;;;;;;;5.25;0.90;;;15.50;57.50;;;;;;5019872;28;20045;-44
2023/10/22 04:50:29;;;;;;;1.52;0.52;;;15.40;57.50;;;;;;5017869;28;20522;-44
2023/10/22 04:52:57;;;;;;;5.10;1.23;;;15.40;57.60;;;;;;5017264;28;20069;-41
2023/10/22 04:55:25;;;;;;;2.90;0.90;;;15.30;57.60;;;;;;5018307;28;20053;-41
2023/10/22 04:57:54;;;;;;;4.90;0.93;;;15.40;57.60;;;;;;5019298;28;20060;-40
2023/10/22 05:00:22;;;;;;;9.65;4.55;;;15.30;57.60;;;;;;5017082;28;20060;-42
2023/10/22 05:02:50;;;;;;;5.82;1.50;;;15.30;57.70;;;;;;5019310;28;20060;-41
2023/10/22 05:05:17;;;;;;;4.60;1.35;;;15.20;57.70;;;;;;5020086;28;20573;-42
2023/10/22 05:07:46;;;;;;;2.97;0.50;;;15.20;57.80;;;;;;5020610;28;20061;-42
2023/10/22 05:10:14;;;;;;;0.93;0.30;;;15.20;57.80;;;;;;5015447;28;20065;-44
2023/10/22 05:12:41;;;;;;;3.45;0.32;;;15.20;57.40;;;;;;5017636;28;20383;-40
2023/10/22 05:15:09;;;;;;;1.20;0.30;;;15.10;57.80;;;;;;5016898;28;20049;-40
2023/10/22 05:17:36;;;;;;;4.15;0.30;;;15.10;57.90;;;;;;5019693;28;21137;-47
2023/10/22 05:20:04;;;;;;;1.00;0.10;;;15.10;57.90;;;;;;5019869;28;20414;-40
2023/10/22 05:22:33;;;;;;;1.90;0.30;;;15.10;57.90;;;;;;5019086;28;20053;-40
2023/10/22 05:25:02;;;;;;;0.35;0.28;;;15.10;58.00;;;;;;5015692;28;20053;-41
2023/10/22 05:27:29;;;;;;;1.65;0.30;;;15.10;58.00;;;;;;5019139;28;20048;-40
2023/10/22 05:29:56;;;;;;;3.13;0.30;;;15.10;58.00;;;;;;5018002;28;20057;-42
2023/10/22 05:32:23;;;;;;;0.82;0.25;;;15.10;58.00;;;;;;5019544;28;20413;-41
2023/10/22 05:34:50;;;;;;;1.00;0.30;;;15.10;58.10;;;;;;5019019;28;20057;-40
2023/10/22 05:37:18;;;;;;;1.33;0.60;;;15.20;58.20;;;;;;5018532;28;20057;-42
2023/10/22 05:39:45;;;;;;;2.80;0.30;;;15.10;58.20;;;;;;5018566;28;20061;-40
2023/10/22 05:42:14;;;;;;;1.00;0.28;;;15.20;58.20;;;;;;5019197;28;20517;-40
2023/10/22 05:44:41;;;;;;;1.95;0.55;;;15.20;58.20;;;;;;5017741;28;20240;-41
2023/10/22 05:47:09;;;;;;;0.38;0.13;;;15.20;58.10;;;;;;5020666;28;20056;-41
2023/10/22 05:49:36;;;;;;;1.02;0.10;;;15.20;58.10;;;;;;5022431;28;20493;-42
2023/10/22 05:52:04;;;;;;;0.30;0.10;;;15.20;58.10;;;;;;5023971;28;20069;-40
2023/10/22 05:54:31;;;;;;;0.10;0.10;;;15.20;58.20;;;;;;5021799;28;20061;-38
2023/10/22 05:56:58;;;;;;;0.47;0.20;;;15.20;58.00;;;;;;5019784;28;20041;-37
2023/10/22 05:59:27;;;;;;;1.02;0.20;;;15.30;58.00;;;;;;5023460;28;20060;-41
2023/10/22 06:01:54;;;;;;;4.00;1.33;;;15.30;58.00;;;;;;5019234;28;20061;-39
2023/10/22 06:04:21;;;;;;;0.20;0.10;;;15.30;58.00;;;;;;5021733;28;20053;-40
2023/10/22 06:06:48;;;;;;;0.60;0.20;;;15.30;58.00;;;;;;5019745;28;20096;-43
2023/10/22 06:09:16;;;;;;;0.20;0.10;;;15.30;58.10;;;;;;5022084;28;20422;-45
2023/10/22 06:11:43;;;;;;;0.95;0.13;;;15.40;58.20;;;;;;5021869;28;20053;-42
2023/10/22 06:14:10;;;;;;;1.48;0.28;;;15.40;58.30;;;;;;5023043;28;20057;-42
2023/10/22 06:16:39;;;;;;;0.80;0.20;;;15.30;58.20;;;;;;5020393;28;20061;-42
2023/10/22 06:19:06;;;;;;;2.42;0.30;;;15.40;58.10;;;;;;5022268;28;20063;-40
2023/10/22 06:21:33;;;;;;;1.10;0.20;;;15.40;58.00;;;;;;5022817;28;20053;-40
2023/10/22 06:24:00;;;;;;;0.10;0.10;;;15.40;58.00;;;;;;5021376;28;20058;-39
2023/10/22 06:26:28;;;;;;;0.55;0.10;;;15.40;58.20;;;;;;5023285;28;20057;-39
2023/10/22 06:28:55;;;;;;;0.63;0.20;;;15.40;58.30;;;;;;5022051;28;20053;-40
2023/10/22 06:31:23;;;;;;;0.75;0.20;;;15.40;58.40;;;;;;5021113;28;20053;-40
2023/10/22 06:33:51;;;;;;;1.38;0.10;;;15.50;58.40;;;;;;5023001;28;20058;-40
2023/10/22 06:36:21;;;;;;;1.02;0.10;;;15.50;58.30;;;;;;5019626;28;20057;-40
2023/10/22 06:38:50;;;;;;;0.55;0.30;;;15.50;58.30;;;;;;5020962;28;20057;-42
2023/10/22 06:41:21;;;;;;;0.93;0.13;;;15.50;58.50;;;;;;5022668;28;20068;-41
2023/10/22 06:43:49;;;;;;;1.98;0.30;;;15.50;58.50;;;;;;5022096;28;20498;-40
2023/10/22 06:46:18;;;;;;;0.57;0.10;;;15.50;58.30;;;;;;5021553;28;20045;-39
2023/10/22 06:48:45;;;;;;;2.25;0.40;;;15.50;58.20;;;;;;5020588;28;20053;-43
2023/10/22 06:51:16;;;;;;;0.50;0.10;;;15.50;58.20;;;;;;5019952;28;20054;-40
2023/10/22 06:53:44;;;;;;;1.63;0.10;;;15.50;58.40;;;;;;5020261;28;20057;-41
2023/10/22 06:56:12;;;;;;;0.20;0.10;;;15.60;58.50;;;;;;5022249;28;20050;-46
2023/10/22 06:58:39;;;;;;;3.08;0.13;;;15.60;58.60;;;;;;5019762;28;20054;-40
2023/10/22 07:01:08;;;;;;;0.90;0.10;;;15.60;58.50;;;;;;5017014;28;20053;-46
2023/10/22 07:03:36;;;;;;;1.60;0.20;;;15.60;58.40;;;;;;5020745;28;20049;-41
2023/10/22 07:06:04;;;;;;;0.45;0.10;;;15.60;58.60;;;;;;5021236;28;20064;-40
2023/10/22 07:08:33;;;;;;;1.13;0.15;;;15.60;58.70;;;;;;5023901;28;20049;-44
2023/10/22 07:11:00;;;;;;;0.82;0.32;;;15.60;58.50;;;;;;5022192;28;20054;-40
2023/10/22 07:13:28;;;;;;;0.20;0.10;;;15.60;58.40;;;;;;5016973;28;20904;-40
2023/10/22 07:15:56;;;;;;;0.17;0.17;;;15.70;58.40;;;;;;5018467;28;20053;-41
2023/10/22 07:18:23;;;;;;;1.55;0.25;;;15.70;58.40;;;;;;5016774;28;20042;-42
2023/10/22 07:20:50;;;;;;;2.35;0.20;;;15.70;58.40;;;;;;5017016;28;20053;-44
2023/10/22 07:23:18;;;;;;;2.45;0.20;;;15.70;58.50;;;;;;5019888;28;20494;-42
2023/10/22 07:25:47;;;;;;;0.60;0.30;;;15.70;58.40;;;;;;5016579;28;20509;-41
2023/10/22 07:28:15;;;;;;;1.60;0.10;;;15.70;58.30;;;;;;5020353;28;20053;-43
2023/10/22 07:30:47;;;;;;;0.47;0.13;;;15.70;58.40;;;;;;5017531;28;20391;-42
2023/10/22 07:33:15;;;;;;;0.85;0.20;;;15.70;58.40;;;;;;5018533;28;20061;-44
2023/10/22 07:35:51;;;;;;;0.28;0.10;;;15.80;58.60;;;;;;5020258;28;20045;-42
2023/10/22 07:38:19;;;;;;;0.38;0.10;;;15.80;58.60;;;;;;5020758;28;20759;-40
2023/10/22 07:40:55;;;;;;;0.38;0.17;;;15.80;58.50;;;;;;5020574;28;20379;-41
2023/10/22 07:43:27;;;;;;;1.75;0.32;;;15.80;58.80;;;;;;5018968;28;20053;-50
2023/10/22 07:45:59;;;;;;;0.43;0.20;;;15.80;58.30;;;;;;5016493;28;20046;-46
2023/10/22 07:48:26;;;;;;;3.40;0.20;;;15.80;58.30;;;;;;5020517;28;20053;-48
2023/10/22 07:50:53;;;;;;;0.63;0.10;;;15.80;58.30;;;;;;5020712;28;20053;-47
2023/10/22 07:53:21;;;;;;;1.17;0.20;;;15.90;58.20;;;;;;5019480;28;20072;-49
2023/10/22 07:55:50;;;;;;;1.00;0.20;;;15.90;58.10;;;;;;5020238;28;20504;-46
2023/10/22 07:58:17;;;;;;;0.35;0.20;;;15.90;58.10;;;;;;5020694;28;20049;-48
2023/10/22 08:00:44;;;;;;;0.50;0.20;;;15.90;58.50;;;;;;5018479;28;20061;-49
2023/10/22 08:03:11;;;;;;;2.20;0.30;;;15.90;58.00;;;;;;5017541;28;20482;-49
2023/10/22 08:05:39;;;;;;;1.00;0.17;;;15.90;58.00;;;;;;5021569;28;20124;-48
2023/10/22 08:08:06;;;;;;;0.65;0.20;;;15.90;58.10;;;;;;5020388;28;20049;-46
2023/10/22 08:10:33;;;;;;;0.90;0.40;;;15.90;58.00;;;;;;5019714;28;20520;-49
2023/10/22 08:13:02;;;;;;;0.85;0.20;;;15.90;57.90;;;;;;5016642;28;20049;-49
2023/10/22 08:15:29;;;;;;;0.20;0.10;;;15.90;58.00;;;;;;5017574;28;20053;-45
2023/10/22 08:17:56;;;;;;;1.20;0.20;;;16.00;58.10;;;;;;5016326;28;20041;-49
2023/10/22 08:20:24;;;;;;;1.95;0.85;;;16.00;58.60;;;;;;5019499;28;20062;-50
2023/10/22 08:22:51;;;;;;;6.43;3.03;;;16.00;58.00;;;;;;5020354;28;20046;-48
2023/10/22 08:25:18;;;;;;;1.33;0.63;;;16.10;58.10;;;;;;5018181;28;20057;-49
2023/10/22 08:27:45;;;;;;;0.40;0.30;;;16.10;58.10;;;;;;5019071;28;20045;-47
2023/10/22 08:30:14;;;;;;;0.35;0.10;;;16.10;58.00;;;;;;5018871;28;20417;-51
2023/10/22 08:32:46;;;;;;;0.40;0.20;;;16.10;58.10;;;;;;5018910;28;20068;-47
2023/10/22 08:35:14;;;;;;;0.20;0.10;;;16.10;58.00;;;;;;5019096;28;20045;-49
2023/10/22 08:37:42;;;;;;;0.15;0.15;;;16.20;58.10;;;;;;5019198;28;20045;-48
2023/10/22 08:40:10;;;;;;;0.55;0.10;;;16.20;58.00;;;;;;5020820;28;20075;-46
2023/10/22 08:42:38;;;;;;;0.82;0.20;;;16.20;58.00;;;;;;5019196;28;20050;-46
2023/10/22 08:45:07;;;;;;;0.55;0.10;;;16.30;58.00;;;;;;5018420;28;20057;-48
2023/10/22 08:47:37;;;;;;;0.30;0.10;;;16.30;57.80;;;;;;5019015;28;20468;-45
2023/10/22 08:50:06;;;;;;;0.93;0.30;;;16.30;57.80;;;;;;5019988;28;20057;-47
2023/10/22 08:52:34;;;;;;;0.45;0.13;;;16.40;57.90;;;;;;5017798;28;21400;-48
2023/10/22 08:55:01;;;;;;;0.10;0.10;;;16.40;58.00;;;;;;5020818;28;20053;-48
2023/10/22 08:57:29;;;;;;;0.20;0.10;;;16.40;57.80;;;;;;5018237;28;20493;-48
2023/10/22 08:59:56;;;;;;;1.42;0.17;;;16.50;57.70;;;;;;5019370;28;20057;-45
2023/10/22 09:02:26;;;;;;;0.47;0.28;;;16.50;57.60;;;;;;5019418;28;20596;-45
2023/10/22 09:04:56;;;;;;;0.80;0.52;;;16.50;57.50;;;;;;5017510;28;20426;-49
2023/10/22 09:07:51;;;;;;;0.10;0.10;;;16.50;57.40;;;;;;5019910;28;20049;-49
2023/10/22 09:10:25;;;;;;;0.60;0.20;;;16.50;57.30;;;;;;5017641;28;20057;-49
2023/10/22 09:12:53;;;;;;;0.88;0.20;;;16.50;57.10;;;;;;5018865;28;20049;-49
2023/10/22 09:15:20;;;;;;;0.10;0.10;;;16.50;57.10;;;;;;5016725;28;20060;-48
2023/10/22 09:17:59;;;;;;;3.55;0.35;;;16.50;57.10;;;;;;5019240;28;20057;-50
2023/10/22 09:20:27;;;;;;;4.50;2.55;;;16.50;57.10;;;;;;5018792;28;20493;-48
2023/10/22 09:23:12;;;;;;;28.50;16.58;;;16.50;57.00;;;;;;5020822;28;20061;-48
2023/10/22 09:25:40;;;;;;;89.20;40.95;;;16.50;57.00;;;;;;5022376;28;20054;-44
2023/10/22 09:28:14;;;;;;;161.82;87.72;;;16.50;57.10;;;;;;5023569;28;20050;-50
2023/10/22 09:30:41;;;;;;;74.55;47.60;;;16.50;57.10;;;;;;5021028;28;20049;-49
2023/10/22 09:33:09;;;;;;;40.53;27.05;;;16.50;57.20;;;;;;5021727;28;20060;-49
2023/10/22 09:35:38;;;;;;;14.65;10.45;;;16.50;57.30;;;;;;5023194;28;20056;-46
2023/10/22 09:38:06;;;;;;;11.43;8.82;;;16.50;57.30;;;;;;5020683;28;20069;-47
2023/10/22 09:40:34;;;;;;;13.90;10.30;;;16.50;57.30;;;;;;5021620;28;20057;-49
2023/10/22 09:43:04;;;;;;;7.40;5.88;;;16.50;57.30;;;;;;5022433;28;20060;-44
2023/10/22 09:45:32;;;;;;;2.50;2.10;;;16.50;57.50;;;;;;5021947;28;20053;-45
2023/10/22 09:48:06;;;;;;;2.97;2.75;;;16.60;57.40;;;;;;5021564;28;20133;-51
2023/10/22 09:50:36;;;;;;;1.42;1.17;;;16.60;57.90;;;;;;5022144;28;20057;-45
2023/10/22 09:53:07;;;;;;;1.77;1.52;;;16.60;57.60;;;;;;5021881;28;20442;-51
2023/10/22 09:55:38;;;;;;;2.80;0.70;;;16.70;57.50;;;;;;5023170;28;20405;-46
2023/10/22 09:58:06;;;;;;;0.40;0.40;;;16.70;57.40;;;;;;5023861;28;20497;-49
2023/10/22 10:00:34;;;;;;;0.60;0.60;;;16.70;57.30;;;;;;5020921;28;20068;-48
2023/10/22 10:03:04;;;;;;;0.65;0.47;;;16.70;57.40;;;;;;5022255;28;20046;-44
2023/10/22 10:05:33;;;;;;;0.60;0.32;;;16.70;57.50;;;;;;5020982;28;20049;-41
2023/10/22 10:08:01;;;;;;;0.60;0.22;;;16.70;57.30;;;;;;5022152;28;20052;-40
2023/10/22 10:10:30;;;;;;;0.57;0.10;;;16.80;57.30;;;;;;5020934;28;20054;-40
2023/10/22 10:12:57;;;;;;;0.73;0.40;;;16.80;57.20;;;;;;5019721;28;20049;-40
2023/10/22 10:15:35;;;;;;;1.08;0.20;;;16.80;57.20;;;;;;5020753;28;20053;-40
2023/10/22 10:18:02;;;;;;;0.63;0.50;;;16.80;57.00;;;;;;5023121;28;20057;-42
2023/10/22 10:20:31;;;;;;;1.15;0.32;;;16.80;57.00;;;;;;5021293;28;20053;-44
2023/10/22 10:23:07;;;;;;;1.23;0.30;;;16.90;56.90;;;;;;5018778;28;20524;-42
2023/10/22 10:25:40;;;;;;;0.77;0.30;;;16.90;56.90;;;;;;5023068;28;20505;-40
2023/10/22 10:28:08;;;;;;;3.13;1.98;;;16.90;56.80;;;;;;5024888;28;20666;-40
2023/10/22 10:30:37;;;;;;;2.97;2.15;;;17.00;56.80;;;;;;5022927;28;20064;-41
2023/10/22 10:33:04;;;;;;;4.18;3.72;;;17.00;56.70;;;;;;5022674;28;20409;-42
2023/10/22 10:35:43;;;;;;;5.45;3.40;;;17.00;56.70;;;;;;5019757;28;20064;-40
2023/10/22 10:38:28;;;;;;;26.63;18.92;;;17.00;56.70;;;;;;5018565;28;20612;-41
2023/10/22 10:40:57;;;;;;;4.22;3.22;;;17.00;56.60;;;;;;5020654;28;20053;-41
2023/10/22 10:44:07;;;;;;;1.27;0.88;;;17.10;56.60;;;;;;5020468;28;20061;-38
2023/10/22 10:46:34;;;;;;;0.95;0.40;;;17.00;56.40;;;;;;5020475;28;20050;-42
2023/10/22 10:49:01;;;;;;;0.80;0.80;;;17.00;56.20;;;;;;5019519;28;20494;-44
2023/10/22 10:51:29;;;;;;;1.02;0.75;;;17.10;56.40;;;;;;5018246;28;20060;-40
2023/10/22 10:54:20;;;;;;;0.88;0.50;;;17.10;56.40;;;;;;5021922;28;20057;-40
2023/10/22 10:56:54;;;;;;;0.98;0.30;;;17.00;56.40;;;;;;5019325;28;20054;-38
2023/10/22 10:59:25;;;;;;;;;;;17.10;56.40;;;;;;5019801;28;20042;-44
2023/10/22 11:02:08;;;;;;;1.48;0.82;;;17.10;56.50;;;;;;5019702;28;19932;-42
2023/10/22 11:04:36;;;;;;;0.88;0.77;;;17.10;56.40;;;;;;5021323;28;20068;-42
2023/10/22 11:07:04;;;;;;;1.52;1.35;;;17.10;56.40;;;;;;5021110;28;20418;-43
2023/10/22 11:09:33;;;;;;;1.00;0.80;;;17.10;56.40;;;;;;5020613;28;20060;-44
2023/10/22 11:12:04;;;;;;;0.60;0.50;;;17.10;56.30;;;;;;5021053;28;20086;-41
2023/10/22 11:14:33;;;;;;;1.30;0.40;;;17.10;56.10;;;;;;5023166;28;20057;-40
2023/10/22 11:17:00;;;;;;;0.75;0.50;;;17.10;56.10;;;;;;5022468;28;20506;-41
2023/10/22 11:19:30;;;;;;;1.08;0.52;;;17.10;56.00;;;;;;5022508;28;20045;-39
2023/10/22 11:21:58;;;;;;;1.15;1.05;;;17.10;56.00;;;;;;5022098;28;20064;-40
2023/10/22 11:24:28;;;;;;;1.35;1.25;;;17.10;56.00;;;;;;5022134;28;20050;-39
2023/10/22 11:26:56;;;;;;;0.98;0.40;;;17.10;56.10;;;;;;5020311;28;20078;-42
2023/10/22 11:29:25;;;;;;;0.40;0.15;;;17.10;56.10;;;;;;5019598;28;20045;-41
2023/10/22 11:31:54;;;;;;;0.90;0.40;;;17.10;56.20;;;;;;5019338;28;20417;-43
2023/10/22 11:34:21;;;;;;;0.10;0.10;;;17.10;56.20;;;;;;5020399;28;20064;-41
2023/10/22 11:36:49;;;;;;;0.38;0.20;;;17.10;56.10;;;;;;5022500;28;20060;-40
2023/10/22 11:39:17;;;;;;;1.05;0.47;;;17.10;56.20;;;;;;5021628;28;20049;-42
2023/10/22 11:41:44;;;;;;;0.40;0.28;;;17.10;56.10;;;;;;5021712;28;20072;-40
2023/10/22 11:44:31;;;;;;;1.85;0.50;;;17.10;56.10;;;;;;5023852;28;20053;-40
2023/10/22 11:47:00;;;;;;;1.25;0.57;;;17.10;56.00;;;;;;5019798;28;20056;-41
2023/10/22 11:49:28;;;;;;;2.70;1.75;;;17.20;56.20;;;;;;5021366;28;20107;-39
2023/10/22 11:51:55;;;;;;;10.27;6.53;;;17.20;56.20;;;;;;5022105;28;20056;-38
2023/10/22 12:05:11;;;;;;;4.28;1.63;;;17.40;55.60;;;;;;5034536;28;20037;-39
2023/10/22 12:07:40;;;;;;;4.82;0.93;;;17.40;55.70;;;;;;5021873;28;20087;-38
2023/10/22 12:10:07;;;;;;;1.77;0.70;;;17.40;55.70;;;;;;5020814;28;20052;-41
2023/10/22 12:12:35;;;;;;;0.98;0.80;;;17.40;55.60;;;;;;5022390;28;20062;-40
2023/10/22 12:15:04;;;;;;;2.65;1.05;;;17.40;55.40;;;;;;5022661;28;20391;-40
2023/10/22 12:17:31;;;;;;;1.17;0.60;;;17.40;55.50;;;;;;5019910;28;20506;-39
2023/10/22 12:19:59;;;;;;;0.50;0.40;;;17.40;55.50;;;;;;5021375;28;20053;-37
2023/10/22 12:22:26;;;;;;;0.38;0.20;;;17.40;55.20;;;;;;5022798;28;20494;-49
2023/10/22 12:24:57;;;;;;;0.32;0.20;;;17.40;55.30;;;;;;5020619;28;20494;-47
2023/10/22 12:27:23;;;;;;;1.35;0.20;;;17.40;55.30;;;;;;5022144;28;20520;-50
2023/10/22 12:29:51;;;;;;;0.45;0.28;;;17.30;55.20;;;;;;5022174;28;20525;-45
2023/10/22 12:32:18;;;;;;;1.10;0.15;;;17.30;55.30;;;;;;5021215;28;20506;-50
2023/10/22 12:34:46;;;;;;;0.10;0.10;;;17.30;55.40;;;;;;5020761;28;20053;-47
2023/10/22 12:37:13;;;;;;;0.40;0.30;;;17.30;55.30;;;;;;5021665;28;20064;-47
2023/10/22 12:39:41;;;;;;;0.57;0.20;;;17.30;55.30;;;;;;5022661;28;20060;-48
2023/10/22 12:42:09;;;;;;;0.68;0.30;;;17.30;55.30;;;;;;5022901;28;20057;-47
2023/10/22 12:44:36;;;;;;;2.88;0.30;;;17.30;55.50;;;;;;5021640;28;20721;-48
2023/10/22 12:47:06;;;;;;;0.38;0.10;;;17.20;55.60;;;;;;5021165;28;20057;-47
2023/10/22 12:49:33;;;;;;;0.55;0.25;;;17.20;55.70;;;;;;5021983;28;20041;-46
2023/10/22 12:52:00;;;;;;;0.55;0.20;;;17.20;55.80;;;;;;5021773;28;20057;-48
2023/10/22 12:54:27;;;;;;;0.70;0.60;;;17.20;56.00;;;;;;5023171;28;20049;-46
2023/10/22 12:56:56;;;;;;;0.40;0.17;;;17.20;56.10;;;;;;5020670;28;20053;-44
2023/10/22 12:59:24;;;;;;;0.10;0.10;;;17.20;55.90;;;;;;5021818;28;20053;-48
2023/10/22 13:01:52;;;;;;;0.50;0.35;;;17.20;55.80;;;;;;5018562;28;20536;-50
2023/10/22 13:04:19;;;;;;;0.70;0.40;;;17.20;55.90;;;;;;5020280;28;20053;-46